createdAt,value
2022-11-15T18:46:32.732Z,994.51
2022-11-15T18:46:43.660Z,994.58
2022-11-15T18:46:53.654Z,994.60
2022-11-15T18:47:03.660Z,994.60
2022-11-15T18:47:13.655Z,994.60
2022-11-15T18:47:23.646Z,994.61
2022-11-15T18:47:33.648Z,994.61
2022-11-15T18:47:43.649Z,994.63
2022-11-15T18:47:53.630Z,994.63
2022-11-15T18:48:03.628Z,994.62
2022-11-15T18:48:13.617Z,994.62
2022-11-15T18:48:23.618Z,994.61
2022-11-15T18:48:54.616Z,994.62
2022-11-15T18:48:59.305Z,994.61
2022-11-15T18:49:09.337Z,994.56
2022-11-15T18:49:19.309Z,994.56
2022-11-15T18:49:29.300Z,994.56
2022-11-15T18:49:39.311Z,994.56
2022-11-15T18:49:49.295Z,994.53
2022-11-15T18:49:59.279Z,994.55
2022-11-15T18:50:09.333Z,994.57
2022-11-15T18:50:19.271Z,994.59
2022-11-15T18:50:29.267Z,994.54
2022-11-15T18:51:04.746Z,994.55
2022-11-15T18:51:09.896Z,994.52
2022-11-15T18:51:19.895Z,994.51
2022-11-15T18:51:29.903Z,994.53
2022-11-15T18:51:39.871Z,994.52
2022-11-15T18:51:49.878Z,994.50
2022-11-15T18:51:59.849Z,994.50
2022-11-15T18:52:09.844Z,994.51
2022-11-15T18:52:19.840Z,994.51
2022-11-15T18:52:29.844Z,994.51
2022-11-15T18:52:39.841Z,994.52
2022-11-15T18:52:49.842Z,994.51
2022-11-15T18:52:59.817Z,994.53
2022-11-15T18:53:09.820Z,994.52
2022-11-15T18:53:40.801Z,994.52
2022-11-15T18:53:45.496Z,994.50
2022-11-15T18:53:55.523Z,994.49
2022-11-15T18:54:05.485Z,994.48
2022-11-15T18:54:15.480Z,994.48
2022-11-15T18:54:29.772Z,994.49
2022-11-15T18:54:35.740Z,994.49
2022-11-15T18:55:06.434Z,994.50
2022-11-15T18:55:11.150Z,994.49
2022-11-15T18:55:21.146Z,994.50
2022-11-15T18:55:31.136Z,994.49
2022-11-15T18:55:41.130Z,994.49
2022-11-15T18:56:12.112Z,994.51
2022-11-15T18:56:16.815Z,994.52
2022-11-15T18:56:26.845Z,994.52
2022-11-15T18:56:36.807Z,994.53
2022-11-15T18:56:46.795Z,994.51
2022-11-15T18:57:17.824Z,994.52
2022-11-15T18:57:22.550Z,994.55
2022-11-15T18:57:32.510Z,994.51
2022-11-15T18:57:42.548Z,994.49
2022-11-15T18:57:52.529Z,994.47
2022-11-15T18:58:02.508Z,994.45
2022-11-15T18:58:12.489Z,994.45
2022-11-15T18:58:22.493Z,994.47
2022-11-15T18:58:32.486Z,994.48
2022-11-15T18:58:42.475Z,994.48
2022-11-15T18:58:52.462Z,994.49
2022-11-15T18:59:02.469Z,994.49
2022-11-15T18:59:12.448Z,994.48
2022-11-15T18:59:22.444Z,994.48
2022-11-15T18:59:32.436Z,994.48
2022-11-15T18:59:42.438Z,994.47
2022-11-15T18:59:52.415Z,994.49
2022-11-15T19:00:23.394Z,994.47
2022-11-15T19:00:28.085Z,994.46
2022-11-15T19:00:38.087Z,994.44
2022-11-15T19:00:48.087Z,994.45
2022-11-15T19:00:58.154Z,994.45
2022-11-15T19:01:08.146Z,994.45
2022-11-15T19:01:18.091Z,994.44
2022-11-15T19:01:28.140Z,994.45
2022-11-15T19:01:38.019Z,994.44
2022-11-15T19:01:48.022Z,994.44
2022-11-15T19:01:58.008Z,994.45
2022-11-15T19:02:07.999Z,994.43
2022-11-15T19:02:17.998Z,994.43
2022-11-15T19:02:28.008Z,994.40
2022-11-15T19:02:37.977Z,994.40
2022-11-15T19:02:47.982Z,994.40
2022-11-15T19:02:57.950Z,994.41
2022-11-15T19:03:07.948Z,994.42
2022-11-15T19:03:23.415Z,994.40
2022-11-15T19:03:29.196Z,994.40
2022-11-15T19:03:39.048Z,994.41
2022-11-15T19:03:49.170Z,994.40
2022-11-15T19:03:57.921Z,994.39
2022-11-15T19:04:07.907Z,994.42
2022-11-15T19:04:17.898Z,994.42
2022-11-15T19:04:27.920Z,994.40
2022-11-15T19:04:37.894Z,994.39
2022-11-15T19:04:47.873Z,994.39
2022-11-15T19:04:57.901Z,994.40
2022-11-15T19:05:07.862Z,994.40
2022-11-15T19:05:17.862Z,994.38
2022-11-15T19:05:27.845Z,994.39
2022-11-15T19:05:37.844Z,994.39
2022-11-15T19:05:47.825Z,994.38
2022-11-15T19:05:57.809Z,994.37
2022-11-15T19:06:07.804Z,994.36
2022-11-15T19:06:17.802Z,994.37
2022-11-15T19:06:27.795Z,994.35
2022-11-15T19:06:37.812Z,994.34
2022-11-15T19:06:47.874Z,994.34
2022-11-15T19:06:57.863Z,994.33
2022-11-15T19:07:28.769Z,994.33
2022-11-15T19:07:33.660Z,994.34
2022-11-15T19:07:43.478Z,994.36
2022-11-15T19:07:53.485Z,994.36
2022-11-15T19:08:03.457Z,994.33
2022-11-15T19:08:13.446Z,994.30
2022-11-15T19:08:23.466Z,994.29
2022-11-15T19:08:54.415Z,994.29
2022-11-15T19:08:59.131Z,994.28
2022-11-15T19:09:09.125Z,994.28
2022-11-15T19:09:19.127Z,994.29
2022-11-15T19:09:29.095Z,994.28
2022-11-15T19:09:39.101Z,994.27
2022-11-15T19:09:49.111Z,994.27
2022-11-15T19:09:59.082Z,994.26
2022-11-15T19:10:09.070Z,994.27
2022-11-15T19:10:19.070Z,994.28
2022-11-15T19:10:29.087Z,994.26
2022-11-15T19:10:39.064Z,994.27
2022-11-15T19:10:49.069Z,994.26
2022-11-15T19:10:59.045Z,994.25
2022-11-15T19:11:09.040Z,994.22
2022-11-15T19:11:19.014Z,994.23
2022-11-15T19:11:29.021Z,994.25
2022-11-15T19:11:39.008Z,994.25
2022-11-15T19:11:49.003Z,994.23
2022-11-15T19:12:19.973Z,994.22
2022-11-15T19:12:25.084Z,994.26
2022-11-15T19:12:35.079Z,994.21
2022-11-15T19:12:45.069Z,994.19
2022-11-15T19:12:55.060Z,994.19
2022-11-15T19:13:05.056Z,994.19
2022-11-15T19:13:36.270Z,994.23
2022-11-15T19:13:41.057Z,994.19
2022-11-15T19:14:05.646Z,994.20
2022-11-15T19:14:31.365Z,994.19
2022-11-15T19:14:36.095Z,994.18
2022-11-15T19:14:46.084Z,994.19
2022-11-15T19:14:56.057Z,994.17
2022-11-15T19:15:27.033Z,994.18
2022-11-15T19:15:31.744Z,994.18
2022-11-15T19:15:41.744Z,994.18
2022-11-15T19:15:51.750Z,994.18
2022-11-15T19:16:01.719Z,994.18
2022-11-15T19:16:11.712Z,994.18
2022-11-15T19:16:42.720Z,994.19
2022-11-15T19:16:47.428Z,994.18
2022-11-15T19:17:18.403Z,994.18
2022-11-15T19:17:23.388Z,994.17
2022-11-15T19:17:33.370Z,994.17
2022-11-15T19:17:43.377Z,994.18
2022-11-15T19:17:53.356Z,994.19
2022-11-15T19:18:03.352Z,994.20
2022-11-15T19:18:13.348Z,994.19
2022-11-15T19:18:23.339Z,994.19
2022-11-15T19:18:33.324Z,994.19
2022-11-15T19:19:04.300Z,994.19
2022-11-15T19:19:30.020Z,994.21
2022-11-15T19:19:34.711Z,994.19
2022-11-15T19:20:05.802Z,994.19
2022-11-15T19:20:10.552Z,994.21
2022-11-15T19:20:20.539Z,994.20
2022-11-15T19:20:30.519Z,994.20
2022-11-15T19:20:40.525Z,994.20
2022-11-15T19:20:50.509Z,994.21
2022-11-15T19:21:00.506Z,994.21
2022-11-15T19:21:14.760Z,994.22
2022-11-15T19:21:20.501Z,994.21
2022-11-15T19:21:30.497Z,994.19
2022-11-15T19:21:40.479Z,994.18
2022-11-15T19:21:50.468Z,994.19
2022-11-15T19:22:00.470Z,994.19
2022-11-15T19:22:10.463Z,994.18
2022-11-15T19:22:20.437Z,994.19
2022-11-15T19:22:30.437Z,994.16
2022-11-15T19:22:40.428Z,994.16
2022-11-15T19:22:50.416Z,994.17
2022-11-15T19:23:00.409Z,994.17
2022-11-15T19:23:10.409Z,994.18
2022-11-15T19:23:20.396Z,994.18
2022-11-15T19:23:30.545Z,994.18
2022-11-15T19:23:40.385Z,994.19
2022-11-15T19:23:50.358Z,994.21
2022-11-15T19:24:00.368Z,994.20
2022-11-15T19:24:10.349Z,994.18
2022-11-15T19:24:20.332Z,994.20
2022-11-15T19:24:30.355Z,994.20
2022-11-15T19:24:40.333Z,994.20
2022-11-15T19:25:11.307Z,994.18
2022-11-15T19:25:16.147Z,994.20
2022-11-15T19:25:26.130Z,994.18
2022-11-15T19:25:36.114Z,994.15
2022-11-15T19:25:46.103Z,994.15
2022-11-15T19:25:56.103Z,994.15
2022-11-15T19:26:06.094Z,994.14
2022-11-15T19:26:16.082Z,994.13
2022-11-15T19:26:26.075Z,994.09
2022-11-15T19:26:36.066Z,994.13
2022-11-15T19:26:46.055Z,994.11
2022-11-15T19:26:56.047Z,994.08
2022-11-15T19:27:27.059Z,994.09
2022-11-15T19:27:36.878Z,994.07
2022-11-15T19:27:42.530Z,994.06
2022-11-15T19:27:51.748Z,994.07
2022-11-15T19:28:01.739Z,994.06
2022-11-15T19:28:11.723Z,994.07
2022-11-15T19:28:21.713Z,994.09
2022-11-15T19:28:31.717Z,994.07
2022-11-15T19:28:41.706Z,994.09
2022-11-15T19:28:51.715Z,994.09
2022-11-15T19:29:01.687Z,994.08
2022-11-15T19:29:11.674Z,994.08
2022-11-15T19:29:21.667Z,994.08
2022-11-15T19:29:31.683Z,994.07
2022-11-15T19:29:41.654Z,994.08
2022-11-15T19:29:51.668Z,994.09
2022-11-15T19:30:01.644Z,994.08
2022-11-15T19:30:11.620Z,994.08
2022-11-15T19:30:21.626Z,994.08
2022-11-15T19:30:31.604Z,994.07
2022-11-15T19:30:41.618Z,994.06
2022-11-15T19:30:51.595Z,994.07
2022-11-15T19:31:01.579Z,994.09
2022-11-15T19:31:11.596Z,994.09
2022-11-15T19:31:21.565Z,994.07
2022-11-15T19:31:31.584Z,994.05
2022-11-15T19:31:41.557Z,994.07
2022-11-15T19:31:51.551Z,994.06
2022-11-15T19:32:01.549Z,994.08
2022-11-15T19:32:11.529Z,994.07
2022-11-15T19:32:21.514Z,994.05
2022-11-15T19:32:31.527Z,994.06
2022-11-15T19:32:41.494Z,994.06
2022-11-15T19:32:51.497Z,994.08
2022-11-15T19:58:14.008Z,993.94
2022-11-15T19:58:24.927Z,994.00
2022-11-15T19:58:34.929Z,994.03
2022-11-15T19:58:44.929Z,994.03
2022-11-15T19:58:54.919Z,994.02
2022-11-15T19:59:04.942Z,994.02
2022-11-15T19:59:14.917Z,994.03
2022-11-15T19:59:24.925Z,994.03
2022-11-15T19:59:55.908Z,994.03
2022-11-15T20:00:21.615Z,994.04
2022-11-15T20:00:47.332Z,994.01
2022-11-15T20:00:52.072Z,993.99
2022-11-15T20:01:02.192Z,994.01
2022-11-15T20:01:12.059Z,994.01
2022-11-15T20:01:22.145Z,994.01
2022-11-15T20:01:32.131Z,994.02
2022-11-15T20:02:03.014Z,994.02
2022-11-15T20:02:07.707Z,993.98
2022-11-15T20:02:17.718Z,993.99
2022-11-15T20:02:48.720Z,993.99
2022-11-15T20:02:53.431Z,993.99
2022-11-15T20:03:24.424Z,994.00
2022-11-15T20:03:29.257Z,994.00
2022-11-15T20:04:00.112Z,994.01
2022-11-15T20:04:04.862Z,993.99
2022-11-15T20:04:35.808Z,994.00
2022-11-15T20:04:40.517Z,994.00
2022-11-15T20:04:50.489Z,993.99
2022-11-15T20:05:00.501Z,993.99
2022-11-15T20:05:15.570Z,994.01
2022-11-15T20:05:43.709Z,993.99
2022-11-15T20:05:48.416Z,993.99
2022-11-15T20:05:58.413Z,993.98
2022-11-15T20:06:08.415Z,993.98
2022-11-15T20:06:18.395Z,993.99
2022-11-15T20:06:49.416Z,994.00
2022-11-15T20:10:56.480Z,993.79
2022-11-15T20:11:28.395Z,993.87
2022-11-15T20:11:33.078Z,993.88
2022-11-15T20:11:43.073Z,993.88
2022-11-15T20:11:53.073Z,993.90
2022-11-15T20:12:03.079Z,993.90
2022-11-15T20:12:13.069Z,993.92
2022-11-15T20:12:46.867Z,993.77
